Terminal Aerodrome Forecast
Issued by NWS

Home | Current Version | Previous Version | Text Only | Print | Product List | Glossary On
Versions: 1 2 3 4 5 6 7 8 9 10 11 12
805
FTUS44 KSJT 232321
TAFBBD
TAF
KBBD 232321Z 2400/2424 18014G21KT P6SM SCT050
     FM240200 16006KT P6SM FEW250
     FM240800 14008KT P6SM BKN025
     FM241200 17011KT P6SM SCT025
      AMD NOT SKED=

USA.gov is the U.S. government's official web portal to all federal, state and local government web resources and services.